Bissau, Guinea-Bissau

79°F / 26°C
Clear
Humidity: 69%
Dew Point: 68°F / 20°C
Wind: West at 7 mph / 11 km/h
Pressure: 29.83 in / 1010 hPa (Falling)
Visibility: 5.0 miles / 8.0 kilometers
Clouds:
Yesterday's Maximum: 99°F / 37°C
Yesterday's Minimum: 70°F / 21°C approx.
Yesterday's Cooling Degree Days: 19 approx.
Sunrise:7:23 AM GMT
Sunset:7:09 PM GMT
Moon Rise:5:10 PM GMT
Moon Set:5:16 AM GMT
Moon Phase Waxing Gibbous
NOAA Weather Radio
No local feed.
METAR GGOV 172000Z 26006KT 8000 NSC 26/20 Q1010 NOSIG
As of: 8:00 PM GMT on February 17, 2019
Observed at: Bissau, Guinea-Bissau

View Station's History

Local Satellite

Current Satellite Forecast
Region Default Local
No Yes

View Full Screen WunderMap

Forecast

Current Satellite Forecast
Saturday
. High: 98° F. / 36° C.

. High: 97° F. / 36° C.

Features

Weather Apps

WunderRadio

Weather Underground Apps
Check out our wide variety of mobile and setup applications.

Weather Underground Applications

Top of Page

© Copyright 2019
The Weather Company, LLC